Date,TemperatureHighF,TemperatureAvgF,TemperatureLowF,DewpointHighF,DewpointAvgF,DewpointLowF,HumidityHigh,HumidityAvg,HumidityLow,PressureMaxIn,PressureMinIn,WindSpeedMaxMPH,WindSpeedAvgMPH,GustSpeedMaxMPH,PrecipitationSumIn
2013-1-1,36.3,33.3,31.1,30.1,26.9,24.4,78,77,76,30.15,30.00,0,0,0,0.00
2013-1-2,37.9,33.1,30.2,32.0,26.6,23.4,79,77,75,30.00,29.85,0,0,0,0.00
2013-1-3,36.5,33.1,29.3,30.6,26.7,22.7,79,77,76,29.85,29.71,0,0,0,0.16
2013-1-4,42.4,39.4,36.5,37.0,33.6,30.6,81,80,77,29.94,29.77,0,0,0,0.24
2013-1-5,41.7,40.5,38.8,35.0,33.9,32.3,78,77,77,29.83,29.71,0,0,0,0.47
2013-1-6,40.6,39.2,37.6,34.0,32.6,31.0,77,77,76,29.77,29.62,0,0,0,1.06
2013-1-7,41.2,39.0,36.9,34.8,32.4,30.3,78,77,77,29.74,29.41,0,0,0,1.18
2013-1-8,46.0,38.9,36.9,40.2,32.5,30.3,80,77,77,29.77,29.23,0,0,0,1.54
2013-1-9,45.7,40.3,35.1,39.9,33.7,28.3,80,77,76,29.53,29.26,0,0,0,0.04
2013-1-10,37.0,33.6,28.4,30.3,26.9,20.9,77,76,73,29.77,29.53,0,0,0,0.08
2013-1-11,32.7,27.8,25.0,22.3,15.1,6.5,73,59,45,29.97,29.77,0,0,0,0.04
2013-1-12,32.5,26.6,23.4,14.6,6.8,2.6,47,42,39,30.06,29.97,0,0,0,0.04
2013-1-13,31.8,27.3,23.0,10.8,5.6,-0.4,42,39,35,30.12,30.06,0,0,0,0.04
2013-1-14,34.3,32.6,27.9,16.2,12.6,6.1,48,43,39,30.21,30.09,0,0,0,0.04
2013-1-15,37.6,34.8,33.8,25.0,19.6,16.2,60,53,49,30.33,30.21,0,0,0,0.08
2013-1-16,37.8,34.0,30.2,23.3,16.8,9.7,58,49,40,30.33,30.18,0,0,0,0.04
2013-1-17,36.7,32.1,29.3,18.4,12.5,9.4,48,44,42,30.18,29.91,0,0,0,0.04
2013-1-18,37.2,32.7,29.1,20.1,14.2,9.4,51,46,42,29.97,29.88,0,0,0,0.04
2013-1-19,37.2,33.4,30.0,21.1,16.0,11.3,53,48,44,30.03,29.97,0,0,0,0.04
2013-1-20,37.9,32.6,29.3,25.5,16.3,11.1,62,51,45,30.03,29.91,0,0,0,0.04
2013-1-21,34.5,30.0,25.2,22.3,13.9,2.0,64,51,36,29.91,29.77,0,0,0,0.04
2013-1-22,36.1,32.5,28.6,27.7,22.3,16.2,71,66,58,29.80,29.53,0,0,0,0.04
2013-1-23,41.9,38.8,34.9,32.1,28.4,25.0,71,66,60,29.71,29.44,0,0,0,0.91
2013-1-24,42.6,39.6,37.8,30.8,26.4,22.7,63,59,53,29.83,29.65,0,0,0,0.43
2013-1-25,43.7,40.8,39.2,32.3,27.0,24.5,64,58,52,29.68,29.53,0,0,0,0.31
2013-1-26,43.0,40.3,38.7,30.7,27.6,25.6,63,60,57,29.65,29.50,0,0,0,0.16
2013-1-27,40.6,38.9,37.4,30.9,28.0,24.8,68,65,60,29.65,29.59,0,0,0,0.31
2013-1-28,39.9,38.3,35.8,31.3,28.7,24.2,71,68,60,29.65,29.59,0,0,0,0.20
2013-1-29,42.1,39.9,37.4,34.1,31.2,26.7,73,71,65,29.91,29.65,0,0,0,0.08
2013-1-30,43.5,41.7,40.3,35.5,33.2,31.6,73,72,71,30.00,29.91,0,0,0,0.08
2013-1-31,45.7,43.7,41.9,37.5,35.4,33.2,73,72,71,30.00,29.88,0,0,0,0.59
2013-2-1,47.3,43.9,38.5,39.5,35.1,28.5,74,71,66,30.06,29.94,0,0,0,0.04
2013-2-2,44.2,39.2,34.3,37.2,30.6,24.5,76,71,63,30.03,29.85,0,0,0,0.31
2013-2-3,43.5,41.6,39.9,36.5,34.2,32.3,76,75,74,29.91,29.77,0,0,0,0.16
2013-2-4,45.0,43.4,42.1,37.5,35.8,34.4,75,74,74,29.80,29.47,0,0,0,0.31
2013-2-5,46.0,44.3,42.6,38.6,36.7,34.4,75,74,72,29.47,29.38,0,0,0,0.55
2013-2-6,45.3,43.3,41.7,38.2,35.7,33.7,76,74,73,29.62,29.38,0,0,0,0.55
2013-2-7,44.8,40.9,34.2,37.7,33.2,25.4,76,74,69,29.83,29.38,0,0,0,0.31
2013-2-8,42.4,37.7,33.4,35.8,30.3,25.1,77,74,70,29.91,29.83,0,0,0,0.00
2013-2-9,43.7,40.2,37.0,36.8,33.0,29.2,77,75,73,29.97,29.88,0,0,0,0.00
2013-2-10,45.1,38.4,33.1,37.5,27.5,20.3,77,65,46,30.00,29.94,0,0,0,0.31
2013-2-11,43.0,41.5,39.9,25.6,23.7,21.8,51,49,47,29.97,29.94,0,0,0,0.31
2013-2-12,46.0,43.5,41.7,31.0,26.7,24.0,57,51,48,30.00,29.83,0,0,0,0.12
2013-2-13,49.3,43.4,38.3,37.9,26.4,16.1,65,51,38,30.09,29.85,0,0,0,0.31
2013-2-14,45.1,42.5,40.3,24.8,21.3,19.0,45,42,40,30.21,30.09,0,0,0,0.31
2013-2-15,49.8,41.8,36.9,33.0,18.7,12.7,61,40,28,30.21,29.80,0,0,0,0.31
2013-2-16,48.6,42.3,35.2,24.3,16.2,8.7,41,35,21,29.80,29.68,0,0,0,0.20
2013-2-17,42.6,39.2,36.3,19.2,15.6,12.9,39,38,34,29.85,29.74,0,0,0,0.31
2013-2-18,41.0,38.2,37.0,18.2,15.8,14.4,40,40,39,29.74,29.41,0,0,0,0.24
2013-2-19,46.8,38.9,33.3,26.3,12.9,7.6,49,35,22,29.62,29.38,0,0,0,0.31
2013-2-20,37.9,35.9,32.2,15.2,12.8,7.6,40,38,34,29.65,29.62,0,0,0,0.43
2013-2-21,39.7,38.1,36.0,17.4,15.8,14.0,40,40,39,29.65,29.56,0,0,0,0.67
2013-2-22,43.9,38.2,34.5,22.1,16.4,12.7,42,41,39,29.62,29.18,0,0,0,1.85
2013-2-23,46.0,39.3,34.9,30.2,14.2,6.2,57,36,20,29.94,29.41,0,0,0,0.00
2013-2-24,40.1,38.7,37.6,17.1,14.7,10.9,39,37,32,29.94,29.50,0,0,0,1.38
2013-2-25,46.0,39.6,32.9,20.8,12.1,2.7,40,33,20,29.85,29.41,0,0,0,0.63
2013-2-26,42.3,37.4,33.1,17.2,12.7,6.4,38,36,32,29.94,29.77,0,0,0,0.35
2013-2-27,42.6,38.8,34.2,19.4,15.9,12.4,40,39,38,29.94,29.80,0,0,0,0.31
2013-2-28,42.3,38.7,34.3,19.7,16.4,12.5,40,40,39,29.91,29.83,0,0,0,1.26
2013-3-1,50.0,47.7,42.3,26.6,24.3,19.7,41,40,39,29.88,29.85,0,0,0,2.64
2013-3-2,49.5,45.5,36.9,28.0,23.4,15.2,44,41,39,29.85,29.62,0,0,0,0.91
2013-3-3,47.3,37.4,31.6,32.1,12.3,6.1,64,36,19,29.94,29.74,0,0,0,0.31
2013-3-4,49.5,38.2,30.9,17.7,6.8,0.8,39,28,19,29.94,29.59,0,0,0,0.31
2013-3-5,45.7,40.5,36.1,11.4,5.6,1.0,31,23,20,29.62,29.41,0,0,0,0.31
2013-3-6,47.3,42.0,38.3,19.6,13.4,10.0,37,31,24,29.50,29.23,0,0,0,0.31
2013-3-7,46.6,41.3,35.6,19.8,14.8,10.0,36,34,31,29.74,29.50,0,0,0,0.31
2013-3-8,48.9,39.6,33.1,21.9,10.3,4.5,40,30,19,29.85,29.71,0,0,0,0.31
2013-3-9,50.4,40.6,33.1,18.3,8.2,3.6,36,27,19,30.12,29.85,0,0,0,0.31
2013-3-10,46.2,42.3,38.8,15.6,12.3,4.7,31,29,23,30.12,30.03,0,0,0,0.31
2013-3-11,49.8,43.9,40.6,20.6,13.9,9.6,36,29,21,30.06,29.77,0,0,0,0.31
2013-3-12,49.1,44.7,39.4,24.0,18.7,11.0,37,35,29,29.77,29.59,0,0,0,2.95
2013-3-13,50.0,49.1,48.2,25.9,24.9,23.6,39,38,37,29.80,29.65,0,0,0,2.17
2013-3-14,49.6,47.4,44.1,27.5,24.7,22.2,43,41,39,29.74,29.62,0,0,0,1.73
2013-3-15,50.7,46.4,43.9,34.3,26.7,22.3,56,46,41,29.83,29.74,0,0,0,0.94
2013-3-16,47.7,43.7,36.9,34.0,25.5,14.6,59,48,40,29.74,29.41,0,0,0,1.73
2013-3-17,46.9,38.5,31.8,26.4,9.2,-0.7,52,31,18,29.74,29.50,0,0,0,0.16
2013-3-18,47.8,39.8,34.5,16.7,6.4,-1.2,35,25,17,29.88,29.65,0,0,0,0.16
2013-3-19,47.1,38.9,32.4,12.7,7.1,1.7,32,27,19,29.88,29.21,0,0,0,0.12
2013-3-20,53.8,43.3,36.7,26.0,13.8,4.5,37,30,19,29.50,28.94,0,0,0,1.73
2013-3-21,46.4,38.5,32.4,17.2,5.5,-2.6,36,26,17,29.77,29.50,0,0,0,0.43
2013-3-22,44.2,36.0,31.5,12.6,5.4,-1.6,31,27,20,30.00,29.77,0,0,0,0.39
2013-3-23,50.5,38.9,31.8,12.8,5.8,-1.7,32,25,18,30.03,29.91,0,0,0,0.04
2013-3-24,51.1,40.6,33.4,10.3,3.8,-1.4,27,21,17,29.94,29.77,0,0,0,1.73
2013-3-25,54.9,44.4,37.4,12.2,4.9,-0.7,21,19,17,29.77,29.59,0,0,0,0.00
2013-3-26,57.9,45.5,36.0,13.4,6.8,1.0,28,20,17,29.65,29.59,0,0,0,1.73
2013-3-27,57.7,47.3,37.4,13.7,8.9,2.3,29,21,17,29.65,29.59,0,0,0,1.73
2013-3-28,59.4,50.0,43.0,14.6,9.8,5.0,27,20,17,29.77,29.65,0,0,0,1.73
2013-3-29,60.1,49.4,40.8,16.7,11.6,6.4,29,22,17,29.88,29.77,0,0,0,1.73
2013-3-30,61.3,49.4,39.9,17.3,11.9,6.4,31,22,16,29.91,29.74,0,0,0,0.00
2013-3-31,64.4,51.3,39.9,17.1,11.5,6.2,28,20,15,29.74,29.56,0,0,0,1.73
2013-4-1,65.1,51.1,41.7,17.0,11.3,5.1,28,20,15,29.74,29.56,0,0,0,1.73
2013-4-2,55.0,51.1,47.5,16.0,11.8,8.3,27,20,18,29.83,29.74,0,0,0,1.73
2013-4-3,60.8,50.4,42.4,16.2,12.3,6.4,29,22,16,29.83,29.62,0,0,0,0.00
2013-4-4,53.8,50.2,47.1,24.2,15.8,7.9,34,25,18,29.62,29.21,0,0,0,0.94
2013-4-5,51.6,49.6,47.3,26.2,24.3,22.4,37,37,34,29.47,29.29,0,0,0,0.98
2013-4-6,53.1,47.4,42.8,26.6,18.8,7.6,40,32,19,29.50,29.26,0,0,0,0.47
2013-4-7,47.5,44.0,41.5,19.9,16.9,13.5,35,33,30,29.50,29.18,0,0,0,1.73
2013-4-8,55.9,47.4,42.3,24.5,16.2,8.8,38,29,17,29.88,29.50,0,0,0,1.73
2013-4-9,49.1,46.1,42.4,19.8,17.0,12.4,34,31,29,29.97,29.80,0,0,0,1.73
2013-4-10,56.3,48.7,45.1,28.0,18.7,8.0,37,31,17,29.80,29.50,0,0,0,1.73
2013-4-11,53.2,46.3,37.6,17.1,11.3,2.6,31,24,18,29.88,29.80,0,0,0,0.04
2013-4-12,43.0,39.2,36.7,14.2,10.6,5.7,35,30,26,29.80,29.23,0,0,0,1.73
2013-4-13,46.4,39.0,32.0,18.7,11.8,7.5,37,32,27,29.59,29.23,0,0,0,1.73
2013-4-14,53.2,42.9,34.3,15.9,9.6,3.3,34,26,18,29.62,29.53,0,0,0,1.73
2013-4-15,54.9,44.8,38.7,17.9,12.7,6.5,32,27,18,29.83,29.56,0,0,0,1.73
2013-4-16,59.0,46.0,36.5,15.6,10.0,0.6,32,24,17,30.00,29.83,0,0,0,1.73
2013-4-17,57.6,47.5,38.1,14.1,8.4,1.6,27,20,17,30.06,30.00,0,0,0,1.73
2013-4-18,48.0,45.3,43.7,20.3,16.9,13.8,35,32,27,30.06,29.80,0,0,0,1.10
2013-4-19,55.4,48.6,43.7,27.4,20.5,17.4,37,33,26,29.80,29.68,0,0,0,0.55
2013-4-20,57.0,49.3,43.2,21.6,16.5,9.7,35,27,17,29.85,29.74,0,0,0,1.73
2013-4-21,53.1,43.9,36.1,19.1,14.1,5.8,35,30,18,30.03,29.83,0,0,0,1.73
2013-4-22,57.2,44.5,33.3,18.8,9.9,2.7,36,25,17,30.18,30.03,0,0,0,0.00
2013-4-23,59.4,48.4,37.9,14.6,8.7,1.5,26,20,17,30.06,29.91,0,0,0,0.00
2013-4-24,63.1,50.5,39.4,16.2,10.4,4.5,28,20,16,29.97,29.71,0,0,0,0.00
2013-4-25,64.2,52.2,40.6,17.1,11.7,4.5,28,20,16,29.77,29.68,0,0,0,0.00
2013-4-26,60.8,52.9,44.2,19.9,13.4,9.7,28,21,16,29.88,29.77,0,0,0,0.00
2013-4-27,51.1,49.1,47.1,23.4,17.1,8.3,35,28,19,29.80,29.74,0,0,0,1.73
2013-4-28,55.8,46.9,40.6,23.0,16.7,9.5,38,30,17,29.80,29.50,0,0,0,1.73
2013-4-29,54.7,45.7,37.6,17.6,10.5,2.3,34,24,18,29.71,29.50,0,0,0,0.00
2013-4-30,55.4,43.7,32.7,12.5,5.8,-1.0,28,21,17,30.06,29.71,0,0,0,1.73
2013-5-1,59.7,47.2,34.5,14.9,7.9,-0.4,27,20,17,30.21,30.06,0,0,0,1.73
2013-5-2,60.8,50.6,41.2,16.2,11.5,4.5,28,21,16,30.21,30.03,0,0,0,1.73
2013-5-3,69.6,53.9,41.7,20.6,14.6,9.7,30,22,15,30.06,29.88,0,0,0,1.73
2013-5-4,75.2,59.2,45.9,21.2,15.7,10.1,27,19,13,29.91,29.65,0,0,0,0.00
2013-5-5,81.3,64.0,51.1,23.8,16.1,9.7,20,16,12,29.65,29.41,0,0,0,1.73
2013-5-6,80.1,64.5,52.3,23.7,16.6,10.1,20,16,12,29.50,29.38,0,0,0,1.73
2013-5-7,73.4,60.6,51.3,21.5,16.2,10.0,26,18,13,29.59,29.44,0,0,0,0.00
2013-5-8,69.6,58.0,50.0,23.1,18.2,12.8,28,21,15,29.77,29.59,0,0,0,1.73
2013-5-9,74.3,59.8,48.7,26.5,19.6,14.4,31,22,13,29.85,29.74,0,0,0,1.73
2013-5-10,73.9,61.7,51.3,26.5,20.5,15.8,30,21,13,29.85,29.74,0,0,0,1.73
2013-5-11,72.1,61.3,54.5,26.9,21.2,15.8,30,22,14,29.80,29.62,0,0,0,1.73
2013-5-12,61.5,58.8,56.3,33.6,30.8,26.9,36,34,30,29.71,29.62,0,0,0,1.73
2013-5-13,58.3,54.0,48.6,31.5,27.7,22.2,37,36,35,29.77,29.53,0,0,0,1.73
2013-5-14,61.9,50.9,46.6,27.0,19.8,11.2,37,30,17,29.85,29.77,0,0,0,1.73
2013-5-15,65.5,55.1,47.5,22.2,16.5,10.4,31,22,15,29.77,29.62,0,0,0,1.73
2013-5-16,67.5,56.3,50.2,24.2,17.7,11.3,31,22,15,29.65,29.50,0,0,0,1.73
2013-5-17,59.7,52.9,47.7,25.7,21.7,16.3,35,29,24,29.68,29.56,0,0,0,1.73
2013-5-18,57.2,53.4,50.7,27.5,24.4,20.8,36,32,26,29.91,29.65,0,0,0,1.73
2013-5-19,64.8,54.5,48.2,25.9,20.2,11.5,34,27,16,30.03,29.91,0,0,0,1.73
2013-5-20,65.3,54.5,45.0,23.6,16.5,11.1,32,23,15,30.00,29.53,0,0,0,1.73
2013-5-21,52.7,49.1,46.6,22.7,19.5,12.2,35,31,21,29.53,29.41,0,0,0,0.51
2013-5-22,60.6,51.7,46.0,27.0,19.0,11.3,37,28,17,29.59,29.47,0,0,0,0.20
2013-5-23,62.4,51.1,41.5,24.2,16.4,10.9,36,26,16,29.65,29.59,0,0,0,0.20
2013-5-24,66.2,52.5,42.4,22.4,14.8,8.5,32,23,15,29.65,29.62,0,0,0,0.20
2013-5-25,61.5,50.0,43.9,28.9,18.9,11.6,32,29,24,29.68,29.62,0,0,0,0.20
2013-5-26,58.3,52.6,45.7,24.2,20.6,17.5,34,29,22,29.62,29.59,0,0,0,0.20
2013-5-27,58.5,53.8,51.4,26.3,23.5,19.5,35,31,26,29.59,29.35,0,0,0,0.47
2013-5-28,54.5,52.7,51.3,28.1,26.6,25.4,37,36,35,29.53,29.38,0,0,0,1.18
2013-5-29,55.2,52.1,49.6,29.9,26.8,24.8,39,37,36,29.56,29.32,0,0,0,1.18
2013-5-30,55.4,51.4,48.7,28.8,24.7,21.6,39,35,28,29.85,29.56,0,0,0,0.20
2013-5-31,66.7,54.3,48.0,28.8,21.1,11.3,37,28,15,29.97,29.85,0,0,0,0.20
2013-6-1,64.9,55.0,48.9,23.1,18.4,11.3,30,24,15,29.88,29.71,0,0,0,0.20
2013-6-2,70.9,56.9,46.6,23.1,17.7,11.5,31,22,14,29.71,29.65,0,0,0,0.20
2013-6-3,71.2,58.3,48.2,23.6,17.9,11.3,31,21,14,29.74,29.71,0,0,0,0.20
2013-6-4,79.7,61.7,49.3,24.8,18.8,11.6,29,20,12,29.80,29.65,0,0,0,0.00
2013-6-5,73.0,62.6,54.5,20.9,16.8,11.3,22,17,14,29.74,29.65,0,0,0,0.20
2013-6-6,78.1,63.6,51.8,25.0,20.0,15.5,28,19,13,29.71,29.62,0,0,0,0.20
2013-6-7,66.9,58.3,53.2,25.9,19.4,11.3,30,22,16,29.77,29.62,0,0,0,0.04
2013-6-8,65.7,56.1,51.6,21.6,18.1,14.4,28,23,15,29.80,29.74,0,0,0,0.20
2013-6-9,65.8,56.4,49.5,26.6,18.6,9.4,29,23,15,29.74,29.65,0,0,0,0.00
2013-6-10,71.2,57.2,46.2,21.2,16.2,10.6,30,21,14,29.68,29.50,0,0,0,0.20
2013-6-11,63.0,55.6,50.7,17.0,14.2,10.2,24,19,16,29.71,29.53,0,0,0,0.00
2013-6-12,66.0,53.5,48.0,29.7,20.0,11.3,35,27,15,29.77,29.71,0,0,0,0.63
2013-6-13,69.1,56.4,45.3,25.4,17.5,12.9,33,23,15,29.80,29.77,0,0,0,0.00
2013-6-14,63.1,54.3,49.5,26.7,22.1,15.5,34,29,20,29.85,29.74,0,0,0,0.20
2013-6-15,73.8,59.1,47.3,27.9,20.3,13.1,34,23,13,29.74,29.56,0,0,0,0.00
2013-6-16,76.1,63.3,53.8,26.0,19.5,12.5,26,19,13,29.71,29.62,0,0,0,0.00
2013-6-17,73.0,63.6,57.6,24.9,20.2,13.2,25,19,14,29.71,29.53,0,0,0,0.20
2013-6-18,70.0,60.1,53.6,28.5,20.9,11.3,33,23,14,29.62,29.53,0,0,0,0.04
2013-6-19,63.0,56.8,51.1,26.5,21.6,13.5,31,25,18,29.59,29.53,0,0,0,0.20
2013-6-20,57.9,55.8,54.3,30.5,28.1,26.1,36,34,31,29.71,29.50,0,0,0,0.67
2013-6-21,60.4,56.3,52.3,31.6,27.6,25.6,37,33,27,29.80,29.71,0,0,0,0.04
2013-6-22,66.9,59.7,54.9,31.2,25.7,19.0,35,28,17,29.77,29.53,0,0,0,0.20
2013-6-23,68.2,60.3,52.3,29.4,25.6,21.5,34,27,17,29.53,29.26,0,0,0,0.00
2013-6-24,60.4,58.6,55.2,33.4,30.9,28.6,36,35,31,29.32,29.21,0,0,0,0.91
2013-6-25,64.2,58.2,54.9,34.7,30.9,28.4,37,35,28,29.47,29.32,0,0,0,0.20
2013-6-26,63.0,58.8,56.1,34.9,31.6,29.5,37,35,34,29.71,29.47,0,0,0,0.20
2013-6-27,61.9,59.9,57.4,34.7,32.8,30.7,37,36,35,29.85,29.68,0,0,0,0.20
2013-6-28,69.3,63.8,58.1,39.6,33.8,31.4,41,33,26,29.85,29.71,0,0,0,0.20
2013-6-29,82.6,69.5,61.3,38.3,30.6,23.1,34,25,14,29.74,29.62,0,0,0,0.20
2013-6-30,89.2,71.6,60.6,35.5,28.2,20.4,33,21,11,29.65,29.50,0,0,0,0.20
2013-7-1,89.2,72.8,62.6,32.0,25.8,20.1,24,18,11,29.62,29.53,0,0,0,0.20
2013-7-2,82.0,70.0,63.1,28.6,23.4,18.5,24,17,12,29.71,29.62,0,0,0,0.20
2013-7-3,78.3,65.2,56.7,25.9,21.2,13.8,26,19,13,29.77,29.65,0,0,0,0.00
2013-7-4,72.5,61.1,53.1,23.8,18.5,13.5,26,19,14,29.74,29.65,0,0,0,0.20
2013-7-5,75.2,63.1,53.6,25.0,20.2,13.7,28,20,13,29.68,29.56,0,0,0,0.20
2013-7-6,80.6,64.3,54.0,25.9,20.7,15.6,27,19,12,29.62,29.47,0,0,0,0.00
2013-7-7,76.3,65.7,58.5,27.0,21.5,15.5,25,19,13,29.56,29.50,0,0,0,0.20
2013-7-8,77.7,65.3,56.1,27.8,21.8,15.2,27,20,13,29.74,29.56,0,0,0,0.00
2013-7-9,83.8,68.2,57.0,29.6,22.9,15.8,28,19,11,29.74,29.62,0,0,0,0.00
2013-7-10,75.2,64.6,56.8,25.0,19.8,12.9,25,18,13,29.65,29.53,0,0,0,0.00
2013-7-11,71.2,60.6,53.4,19.8,14.9,11.0,20,17,14,29.68,29.56,0,0,0,0.00
2013-7-12,73.2,60.3,51.4,21.2,15.6,9.7,23,17,14,29.71,29.62,0,0,0,0.00
2013-7-13,75.6,61.1,50.5,21.3,17.1,11.9,27,18,13,29.85,29.71,0,0,0,0.00
2013-7-14,77.4,63.2,52.5,22.9,17.9,11.3,26,18,13,29.77,29.65,0,0,0,0.00
2013-7-15,82.9,65.2,53.4,24.6,16.9,11.0,20,16,11,29.74,29.56,0,0,0,0.00
2013-7-16,84.9,70.1,58.6,29.8,19.5,14.0,17,15,11,29.59,29.44,0,0,0,0.00
2013-7-17,77.7,68.6,60.4,27.2,20.8,15.8,24,16,13,29.83,29.50,0,0,0,0.00
2013-7-18,79.7,67.4,59.9,23.6,20.7,16.4,22,17,12,29.85,29.74,0,0,0,0.00
2013-7-19,81.9,67.5,58.3,28.0,22.6,16.1,27,19,12,29.80,29.65,0,0,0,0.00
2013-7-20,78.6,65.7,58.5,27.4,22.8,15.8,27,20,13,29.68,29.59,0,0,0,0.00
2013-7-21,79.2,65.2,55.6,25.0,21.2,15.8,27,19,12,29.59,29.53,0,0,0,0.00
2013-7-22,79.3,65.3,56.7,27.6,22.2,15.8,28,20,12,29.68,29.56,0,0,0,0.00
2013-7-23,84.0,67.7,57.2,29.8,22.2,14.9,27,18,11,29.71,29.59,0,0,0,0.00
2013-7-24,81.5,67.6,57.6,26.2,20.2,14.4,26,17,12,29.68,29.62,0,0,0,0.00
2013-7-25,81.5,67.6,56.8,25.2,20.0,14.4,25,17,12,29.74,29.65,0,0,0,0.00
2013-7-26,79.2,65.8,57.0,25.5,19.9,14.4,25,18,12,29.77,29.71,0,0,0,0.00
2013-7-27,76.5,63.4,56.1,25.1,19.3,12.9,26,19,13,29.77,29.62,0,0,0,0.00
2013-7-28,77.5,63.8,53.8,23.1,18.3,11.6,25,18,13,29.65,29.56,0,0,0,0.00
2013-7-29,78.6,64.8,56.1,25.9,20.9,14.9,27,19,13,29.65,29.56,0,0,0,0.00
2013-7-30,79.3,65.8,56.7,26.7,20.5,14.5,26,18,12,29.74,29.62,0,0,0,0.00
2013-7-31,77.0,65.8,57.7,28.6,21.4,15.8,27,19,13,29.74,29.62,0,0,0,0.00
2013-8-1,70.3,64.0,59.9,26.4,22.2,15.8,25,20,15,29.68,29.62,0,0,0,0.00
2013-8-2,60.4,59.0,57.7,31.2,28.2,24.0,33,31,26,29.77,29.68,0,0,0,0.24
2013-8-3,69.1,62.4,58.1,34.5,28.1,20.1,35,28,17,29.77,29.71,0,0,0,0.08
2013-8-4,78.6,65.8,57.6,32.8,26.0,18.5,33,23,13,29.71,29.59,0,0,0,0.00
2013-8-5,81.1,67.3,58.3,35.5,24.8,15.7,32,21,12,29.65,29.56,0,0,0,0.00
2013-8-6,81.5,67.5,57.2,28.3,21.9,15.5,27,18,12,29.65,29.56,0,0,0,0.00
2013-8-7,80.4,67.7,58.5,27.4,20.8,14.5,26,17,12,29.62,29.56,0,0,0,0.00
2013-8-8,80.1,67.4,58.3,29.4,23.5,18.8,26,20,12,29.65,29.56,0,0,0,0.00
2013-8-9,80.1,70.2,59.0,29.7,24.4,20.7,28,19,12,29.59,29.44,0,0,0,0.00
2013-8-10,76.6,69.1,64.0,27.2,22.1,17.9,23,17,13,29.62,29.47,0,0,0,0.00
2013-8-11,71.8,64.3,60.3,27.3,21.0,15.8,26,19,14,29.71,29.62,0,0,0,0.04
2013-8-12,74.7,65.8,60.6,25.5,21.4,15.8,25,19,13,29.71,29.65,0,0,0,0.00
2013-8-13,75.7,66.4,60.1,25.8,20.5,14.4,24,17,13,29.74,29.59,0,0,0,0.00
2013-8-14,73.2,64.3,57.2,32.2,23.3,16.1,31,21,16,29.59,29.56,0,0,0,0.00
2013-8-15,65.7,63.9,62.1,36.6,34.8,32.0,35,34,31,29.65,29.53,0,0,0,0.00
2013-8-16,73.8,65.8,59.2,37.6,30.4,22.3,36,28,16,29.65,29.59,0,0,0,0.00
2013-8-17,70.0,65.5,59.5,28.8,25.6,20.7,26,22,17,29.71,29.62,0,0,0,0.00
2013-8-18,65.7,61.1,57.4,28.0,25.9,23.2,28,26,23,29.77,29.68,0,0,0,0.04
2013-8-19,69.1,62.2,57.0,27.4,22.9,15.8,30,23,15,29.77,29.68,0,0,0,0.00
2013-8-20,71.6,62.0,54.9,24.3,20.0,11.3,28,20,14,29.80,29.74,0,0,0,0.00
2013-8-21,76.6,63.1,52.3,24.3,17.3,10.9,26,17,13,29.74,29.59,0,0,0,0.00
2013-8-22,79.3,66.7,55.2,25.2,19.6,13.7,25,17,12,29.59,29.41,0,0,0,0.00
2013-8-23,70.3,64.2,58.3,24.0,17.5,13.8,24,16,14,29.53,29.44,0,0,0,0.00
2013-8-24,68.7,61.8,57.7,34.2,25.8,17.4,34,26,15,29.56,29.50,0,0,0,0.16
2013-8-25,72.0,62.7,54.1,27.0,20.5,14.5,29,20,14,29.59,29.47,0,0,0,0.00
2013-8-26,67.8,61.8,57.7,28.3,23.1,13.4,31,23,17,29.59,29.47,0,0,0,0.04
2013-8-27,69.8,63.3,58.3,28.1,24.9,19.6,30,24,17,29.59,29.44,0,0,0,0.12
2013-8-28,67.5,62.9,59.7,38.1,33.5,26.8,35,33,28,29.56,29.47,0,0,0,0.24
2013-8-29,65.1,63.4,61.7,38.0,35.8,33.1,39,36,33,29.59,29.50,0,0,0,1.34
2013-8-30,63.7,60.0,55.4,45.2,38.3,33.6,51,45,36,29.80,29.59,0,0,0,0.24
2013-8-31,69.6,60.9,52.7,50.8,35.4,24.8,69,42,23,29.74,29.47,0,0,0,0.00
2013-9-1,74.5,62.1,55.9,34.0,27.3,19.7,35,28,13,29.53,29.41,0,0,0,0.00
2013-9-2,72.7,63.0,58.6,35.9,29.1,19.1,34,28,14,29.59,29.50,0,0,0,0.04
2013-9-3,65.3,61.5,58.3,37.0,30.9,24.3,35,31,25,29.68,29.56,0,0,0,0.20
2013-9-4,68.9,61.8,56.7,35.0,29.8,25.9,36,30,22,29.71,29.65,0,0,0,0.00
2013-9-5,65.7,61.2,57.6,34.4,31.9,28.1,36,33,25,29.68,29.56,0,0,0,0.94
2013-9-6,66.0,62.5,59.0,40.2,35.5,32.1,40,36,35,29.74,29.53,0,0,0,0.00
2013-9-7,70.7,64.4,59.7,40.7,32.1,25.8,42,31,20,29.74,29.65,0,0,0,0.08
2013-9-8,69.8,62.9,58.1,35.0,30.8,27.8,35,30,22,29.74,29.65,0,0,0,0.00
2013-9-9,67.6,63.5,57.9,29.8,29.4,27.9,34,28,24,29.71,29.62,0,0,0,0.00
2013-9-10,74.8,67.9,59.9,33.9,28.6,22.8,34,23,16,29.65,29.56,0,0,0,0.00
2013-9-11,79.2,71.4,58.6,29.0,27.0,22.9,27,20,15,29.62,29.53,0,0,0,0.00
2013-9-12,79.2,79.2,79.2,27.6,27.6,27.6,15,15,15,29.62,29.53,0,0,0,0.00
2013-9-13,79.2,79.2,79.2,27.6,27.6,27.6,15,15,15,29.59,29.50,0,0,0,0.00
2013-9-14,79.2,79.2,79.2,27.6,27.6,27.6,15,15,15,29.53,29.38,0,0,0,0.00
2013-9-15,79.2,61.7,57.6,34.0,29.9,27.3,35,31,15,29.44,29.32,0,0,0,0.16
2013-9-16,60.8,59.0,56.3,35.1,32.4,30.4,39,37,35,29.53,29.41,0,0,0,1.61
2013-9-17,62.4,57.5,54.7,38.8,30.1,22.5,46,36,25,29.53,29.47,0,0,0,0.00
2013-9-18,64.6,57.0,52.5,28.1,22.5,14.8,34,27,16,29.71,29.53,0,0,0,0.00
2013-9-19,68.0,58.6,51.8,23.4,19.1,12.2,28,22,15,29.71,29.38,0,0,0,0.00
2013-9-20,68.4,59.0,52.0,26.1,19.5,14.4,30,22,15,29.38,29.21,0,0,0,0.12
2013-9-21,63.3,58.2,55.2,32.4,26.3,20.6,35,30,21,29.35,29.26,0,0,0,0.16
2013-9-22,55.4,54.2,52.7,29.1,27.2,22.7,37,35,28,29.29,29.15,0,0,0,1.26
2013-9-23,55.9,52.7,48.0,32.3,28.3,24.6,41,39,37,29.59,29.29,0,0,0,0.24
2013-9-24,54.0,50.5,47.8,30.9,26.1,20.2,43,39,31,29.59,29.47,0,0,0,0.04
2013-9-25,58.8,50.3,43.0,27.2,19.7,15.6,38,30,19,29.65,29.50,0,0,0,0.04
2013-9-26,60.1,50.4,42.8,23.7,15.6,9.5,34,25,17,29.74,29.65,0,0,0,0.04
2013-9-27,51.6,50.1,48.6,26.2,21.8,17.0,37,33,28,29.74,29.44,0,0,0,0.28
2013-9-28,54.9,51.8,49.6,31.0,27.0,25.2,40,38,37,29.44,28.91,0,0,0,1.42
2013-9-29,52.0,50.5,49.1,29.9,28.3,27.1,47,42,40,29.12,28.76,0,0,0,1.26
2013-9-30,50.9,49.1,46.9,35.6,32.5,28.3,57,53,47,29.50,28.91,0,0,0,0.39
2013-10-1,49.6,47.6,45.1,37.9,35.0,32.4,66,61,57,29.71,29.50,0,0,0,0.59
2013-10-2,47.7,45.5,40.6,39.4,35.9,31.3,73,69,66,29.83,29.71,0,0,0,0.63
2013-10-3,53.8,45.7,38.7,45.3,34.4,26.7,78,66,43,30.09,29.83,0,0,0,0.00
2013-10-4,54.5,48.3,42.8,32.8,24.6,20.3,52,40,28,30.12,29.97,0,0,0,0.00
2013-10-5,58.3,53.0,49.6,26.5,22.1,19.9,35,30,25,30.00,29.77,0,0,0,0.04
2013-10-6,63.5,54.8,48.9,30.5,22.7,17.2,37,29,21,29.77,29.44,0,0,0,0.04
2013-10-7,55.2,52.2,50.5,28.8,25.5,20.7,37,35,28,29.56,29.47,0,0,0,0.31
2013-10-8,55.4,47.7,42.3,25.6,18.7,10.7,39,32,18,29.74,29.53,0,0,0,0.04
2013-10-9,55.6,47.3,40.6,22.2,15.3,11.3,36,28,17,29.77,29.59,0,0,0,0.00
2013-10-10,56.1,48.9,42.3,19.6,14.8,9.5,30,26,17,29.71,29.56,0,0,0,0.00
2013-10-11,53.2,46.9,41.0,21.7,16.0,12.6,35,29,23,29.80,29.71,0,0,0,0.04
2013-10-12,55.6,47.4,42.1,21.7,16.1,12.8,35,29,20,29.85,29.71,0,0,0,0.04
2013-10-13,55.6,46.1,39.9,20.1,14.0,10.4,33,28,17,30.00,29.85,0,0,0,0.04
2013-10-14,56.1,46.6,40.3,22.1,15.3,12.6,34,28,20,30.06,30.00,0,0,0,0.04
2013-10-15,56.1,48.3,43.0,23.3,17.1,14.3,35,29,22,30.03,29.83,0,0,0,0.00
2013-10-16,57.6,48.3,42.8,27.1,18.2,15.4,36,30,22,29.85,29.80,0,0,0,0.00
2013-10-17,55.6,47.5,41.5,25.9,17.5,13.9,36,30,25,29.91,29.83,0,0,0,0.04
2013-10-18,53.2,46.6,43.0,26.5,18.6,14.4,37,33,27,29.91,29.80,0,0,0,0.04
2013-10-19,50.0,46.5,43.3,24.6,20.3,16.3,38,35,33,29.85,29.80,0,0,0,0.04
2013-10-20,49.6,47.8,45.9,23.6,21.3,20.1,37,35,32,29.85,29.80,0,0,0,0.04
2013-10-21,50.7,47.4,45.3,24.8,21.8,19.9,37,36,34,29.83,29.74,0,0,0,0.04
2013-10-22,52.2,47.0,43.3,26.9,22.4,19.5,38,37,37,29.77,29.68,0,0,0,0.04
2013-10-23,56.3,48.0,42.3,30.2,22.8,19.0,40,37,32,29.71,29.62,0,0,0,0.04
2013-10-24,57.0,48.7,44.1,26.7,20.4,16.5,38,33,25,29.74,29.65,0,0,0,0.04
2013-10-25,51.8,47.8,43.7,25.1,20.5,15.8,37,34,30,29.97,29.74,0,0,0,0.04
2013-10-26,54.3,49.2,44.1,21.0,18.5,16.6,34,29,25,29.97,29.80,0,0,0,0.04
2013-10-27,52.3,48.0,43.0,25.7,19.6,12.0,36,32,28,29.80,29.59,0,0,0,0.16
2013-10-28,54.9,44.8,39.6,12.6,8.2,2.9,29,22,18,29.71,29.56,0,0,0,0.04
2013-10-29,51.3,41.8,36.0,14.1,6.2,1.5,29,23,19,29.65,29.59,0,0,0,0.04
2013-10-30,51.8,45.2,38.8,17.6,12.3,6.9,31,26,18,29.74,29.65,0,0,0,0.16
2013-10-31,49.3,47.8,46.4,24.1,22.0,17.4,37,36,31,29.88,29.71,0,0,0,0.28
2013-11-1,50.7,49.4,48.6,25.9,24.6,23.5,38,38,37,29.88,29.47,0,0,0,0.47
2013-11-2,49.3,45.5,41.9,25.1,22.6,19.9,43,40,38,29.47,29.06,0,0,0,1.42
2013-11-3,43.7,37.9,33.4,27.5,17.9,12.4,55,44,40,29.74,29.47,0,0,0,0.04
2013-11-4,42.8,36.8,31.3,22.8,13.3,10.6,52,38,31,29.83,29.71,0,0,0,0.04
2013-11-5,42.4,40.2,37.8,18.5,15.2,10.2,39,36,31,29.88,29.68,0,0,0,0.12
2013-11-6,46.8,42.7,38.5,22.5,19.1,15.5,39,38,37,29.97,29.65,0,0,0,0.12
2013-11-7,48.9,46.3,43.3,24.5,22.2,19.5,39,38,37,29.65,29.29,0,0,0,0.91
2013-11-8,48.2,44.7,40.6,27.0,22.3,18.2,45,41,39,29.80,29.53,0,0,0,0.08
2013-11-9,47.7,44.9,42.8,27.8,24.3,21.9,47,44,42,29.80,29.74,0,0,0,0.12
2013-11-10,46.9,43.0,38.7,31.1,25.0,19.1,55,49,44,29.83,29.74,0,0,0,0.04
2013-11-11,50.2,45.3,41.9,30.1,22.3,15.9,51,41,28,29.83,29.65,0,0,0,0.04
2013-11-12,51.1,49.2,45.5,26.2,24.1,20.8,38,37,35,29.94,29.62,0,0,0,0.31
2013-11-13,53.6,49.3,45.9,30.0,25.2,22.2,42,39,37,30.03,29.91,0,0,0,0.16
2013-11-14,50.5,45.3,37.9,28.9,21.9,15.2,43,39,38,29.91,29.65,0,0,0,0.04
2013-11-15,42.6,40.8,38.1,20.0,18.4,15.9,42,40,39,29.65,28.88,0,0,0,2.17
2013-11-16,42.1,38.4,34.3,21.8,17.7,13.1,46,43,40,29.32,28.91,0,0,0,0.04
2013-11-17,45.0,40.3,34.3,28.2,22.2,13.6,52,48,42,29.50,29.32,0,0,0,0.12
2013-11-18,44.6,43.2,41.5,28.4,26.5,24.9,53,52,50,29.50,29.18,0,0,0,0.55
2013-11-19,41.5,36.2,29.3,27.9,16.5,4.3,63,45,29,29.71,29.18,0,0,0,0.04
2013-11-20,36.0,30.0,27.1,11.1,5.6,2.0,41,35,27,30.18,29.71,0,0,0,0.00
2013-11-21,34.7,29.2,26.1,8.3,3.6,1.5,36,33,30,30.33,30.18,0,0,0,0.00
2013-11-22,38.7,31.4,27.1,10.6,5.1,1.9,35,32,29,30.30,30.09,0,0,0,0.04
2013-11-23,41.7,34.6,30.0,16.4,9.4,5.1,38,35,31,30.09,29.85,0,0,0,0.00
2013-11-24,43.7,37.3,33.3,19.5,12.9,9.2,40,36,32,29.88,29.83,0,0,0,0.00
2013-11-25,47.8,39.8,35.4,20.1,13.1,8.5,39,33,28,29.94,29.88,0,0,0,0.00
2013-11-26,45.3,39.3,33.3,14.1,10.3,5.9,32,30,28,29.88,29.74,0,0,0,0.00
2013-11-27,50.2,44.8,40.3,15.6,13.2,10.4,32,28,21,29.74,29.62,0,0,0,0.00
2013-11-28,48.9,43.4,38.3,23.2,17.6,12.9,38,35,32,29.83,29.68,0,0,0,0.00
2013-11-29,46.6,45.5,44.8,22.4,21.2,20.3,38,38,37,29.94,29.83,0,0,0,0.39
2013-11-30,45.1,44.2,43.0,21.7,20.8,19.6,40,39,38,29.94,29.68,0,0,0,1.02
2013-12-1,49.8,44.7,37.6,27.1,22.0,16.0,42,40,38,29.68,29.32,0,0,0,0.98
2013-12-2,40.6,35.5,29.5,19.7,12.6,4.6,46,39,33,29.80,29.35,0,0,0,0.00
2013-12-3,35.8,29.4,26.1,6.3,2.1,-1.5,35,31,24,30.00,29.80,0,0,0,0.00
2013-12-4,32.7,26.9,24.4,3.9,-2.0,-7.2,33,28,23,30.03,29.97,0,0,0,0.00
2013-12-5,30.4,26.1,22.1,-2.2,-5.0,-8.3,29,25,23,29.97,29.85,0,0,0,0.00
2013-12-6,29.7,23.3,19.4,-5.3,-9.1,-12.6,25,23,20,29.97,29.85,0,0,0,0.00
2013-12-7,25.7,20.1,15.6,-8.6,-12.3,-15.3,24,22,21,30.06,29.97,0,0,0,0.00
2013-12-8,28.9,23.8,19.4,-6.5,-9.6,-13.1,25,22,20,30.21,30.06,0,0,0,0.00
2013-12-9,30.0,27.8,24.8,4.4,-0.8,-6.9,33,29,23,30.21,30.12,0,0,0,0.00
2013-12-10,32.9,31.5,30.0,8.7,6.9,4.4,37,35,33,30.15,30.09,0,0,0,0.00
2013-12-11,35.4,33.1,32.0,13.0,10.7,8.7,40,39,37,30.09,29.80,0,0,0,0.04
2013-12-12,37.0,35.2,32.9,15.0,13.3,11.2,40,40,40,29.80,29.65,0,0,0,0.51
2013-12-13,40.5,38.6,36.3,17.5,16.0,14.3,40,39,39,30.06,29.77,0,0,0,0.35
2013-12-14,42.8,41.4,39.6,20.0,18.5,16.7,40,39,39,30.06,29.94,0,0,0,0.08
2013-12-15,46.4,42.4,38.3,23.8,20.0,15.9,43,40,39,30.03,29.91,0,0,0,0.35
2013-12-16,43.0,39.5,34.2,24.0,19.5,15.1,47,44,41,30.12,29.91,0,0,0,0.00
2013-12-17,40.8,38.8,34.0,26.4,23.5,14.9,56,54,45,29.91,29.68,0,0,0,0.16
2013-12-18,41.0,36.4,29.1,29.5,21.3,11.4,68,54,45,29.88,29.62,0,0,0,0.00
2013-12-19,33.8,30.5,27.5,13.9,9.1,4.4,48,41,32,29.97,29.83,0,0,0,0.00
2013-12-20,33.1,31.9,30.6,11.4,9.3,4.9,40,38,33,29.83,29.35,0,0,0,0.00
2013-12-21,35.2,33.6,32.5,13.9,12.3,10.9,41,41,40,29.80,29.50,0,0,0,0.04
2013-12-22,38.7,36.3,33.8,17.0,14.7,12.6,42,41,40,29.91,29.80,0,0,0,0.91
2013-12-23,45.7,40.7,34.9,22.6,18.4,13.6,43,40,39,30.09,29.68,0,0,0,0.71
2013-12-24,41.9,37.9,33.4,21.8,17.3,12.8,46,43,41,30.21,30.09,0,0,0,0.04
2013-12-25,39.2,36.3,32.2,22.0,18.2,12.5,51,47,43,30.18,30.00,0,0,0,0.04
2013-12-26,44.1,40.7,37.8,27.1,22.8,18.7,52,49,45,30.03,29.83,0,0,0,0.28
2013-12-27,44.2,41.1,38.3,29.1,25.0,20.8,55,52,48,29.94,29.68,0,0,0,0.47
2013-12-28,44.1,41.0,39.0,31.5,26.8,23.1,62,57,51,30.15,29.94,0,0,0,0.00
2013-12-29,40.8,39.8,37.9,30.2,28.8,23.3,66,65,58,30.12,29.94,0,0,0,0.08
2013-12-30,44.8,41.9,39.7,37.0,32.8,29.3,74,70,66,29.94,29.74,0,0,0,0.04
2013-12-31,44.8,42.8,40.6,37.0,34.7,31.8,74,73,71,30.00,29.80,0,0,0,0.12
2014-1-1,44.2,41.0,37.8,37.3,33.3,28.7,77,74,69,30.03,29.88,0,0,0,0.04
2014-1-2,43.7,41.9,36.7,36.6,34.5,27.8,76,75,70,29.88,29.44,0,0,0,2.28